Time;durP1;ratioP1;P1;durP2;ratioP2;P2;SDS_P1;SDS_P2;PMS_P1;PMS_P2;Temp;Humidity;BMP_temperature;BMP_pressure;BME280_temperature;BME280_humidity;BME280_pressure;Samples;Min_cycle;Max_cycle;Signal;HPM_P1;HPM_P2
2023/01/07 00:00:09;;;;;;;19.97;13.60;;;2.80;99.90;;;2.71;81.12;100484.44;5109773;28;20224;-68
2023/01/07 00:02:40;;;;;;;22.27;13.97;;;2.80;99.90;;;2.72;80.89;100490.38;5109667;28;20227;-69
2023/01/07 00:05:09;;;;;;;23.00;14.57;;;2.80;99.90;;;2.75;81.21;100496.41;5110619;28;20220;-69
2023/01/07 00:07:38;;;;;;;22.13;13.73;;;2.90;99.90;;;2.78;81.59;100496.50;5108495;27;20211;-69
2023/01/07 00:10:07;;;;;;;20.57;13.33;;;2.90;99.90;;;2.81;80.67;100506.78;5107676;28;20307;-69
2023/01/07 00:12:36;;;;;;;20.83;14.17;;;2.90;99.90;;;2.82;81.46;100500.84;5106833;28;20211;-70
2023/01/07 00:15:05;;;;;;;19.57;14.03;;;2.90;99.90;;;2.83;80.38;100505.13;5109119;28;20204;-67
2023/01/07 00:17:34;;;;;;;24.13;14.13;;;2.90;99.90;;;2.84;80.80;100496.69;5108008;28;20212;-70
2023/01/07 00:20:05;;;;;;;20.93;13.87;;;2.90;99.90;;;2.85;81.14;100513.66;5107750;28;20292;-69
2023/01/07 00:22:33;;;;;;;21.60;13.97;;;3.00;99.90;;;2.87;80.80;100526.41;5101263;28;20625;-71
2023/01/07 00:25:02;;;;;;;25.17;14.60;;;2.90;99.90;;;2.89;80.85;100523.09;5109080;28;20461;-70
2023/01/07 00:27:30;;;;;;;25.33;15.43;;;3.00;99.90;;;2.90;81.20;100531.59;5108607;28;20216;-69
2023/01/07 00:29:59;;;;;;;23.97;14.60;;;3.00;99.90;;;2.90;80.90;100512.09;5104657;28;20636;-72
2023/01/07 00:32:53;;;;;;;21.93;14.57;;;3.00;99.90;;;2.95;81.53;100524.13;5107301;27;20669;-70
2023/01/07 00:35:23;;;;;;;22.67;14.97;;;3.10;99.90;;;2.97;81.37;100532.63;5105632;28;20204;-70
2023/01/07 00:37:54;;;;;;;25.93;15.47;;;3.10;99.90;;;3.00;81.46;100540.34;5107543;28;20298;-68
2023/01/07 00:40:22;;;;;;;23.63;14.80;;;3.10;99.90;;;3.00;81.46;100542.91;5108657;28;20885;-70
2023/01/07 00:43:01;;;;;;;24.40;15.27;;;3.10;99.90;;;3.00;81.83;100551.41;5109081;28;20215;-71
2023/01/07 00:45:32;;;;;;;30.73;16.77;;;3.10;99.90;;;3.01;82.12;100545.47;5108543;28;20215;-68
2023/01/07 00:48:03;;;;;;;26.43;16.50;;;3.10;99.90;;;3.01;81.62;100549.72;5109152;28;20204;-70
2023/01/07 00:50:35;;;;;;;28.47;17.00;;;3.10;99.90;;;3.01;82.80;100526.81;5108469;28;20286;-70
2023/01/07 00:53:04;;;;;;;28.00;16.63;;;3.20;99.90;;;3.05;82.51;100533.69;5108943;28;20212;-69
2023/01/07 00:55:33;;;;;;;27.93;17.17;;;3.30;99.90;;;3.06;82.03;100532.91;5109496;28;20260;-69
2023/01/07 00:58:02;;;;;;;30.13;16.33;;;3.20;99.90;;;3.10;81.93;100537.25;5109464;28;20446;-70
2023/01/07 01:00:30;;;;;;;30.90;17.60;;;3.20;99.90;;;3.12;82.71;100540.69;5100933;28;20223;-69
2023/01/07 01:02:59;;;;;;;29.83;16.27;;;3.20;99.90;;;3.13;82.27;100534.78;5102601;28;20204;-69
2023/01/07 01:05:27;;;;;;;35.83;18.23;;;3.20;99.90;;;3.21;82.27;100535.84;5105856;28;20203;-69
2023/01/07 01:07:58;;;;;;;32.97;17.53;;;3.30;99.90;;;3.22;82.67;100545.19;5108533;28;20656;-69
2023/01/07 01:10:27;;;;;;;38.47;18.57;;;3.30;99.90;;;3.25;82.10;100558.00;5108687;28;20649;-70
2023/01/07 01:12:55;;;;;;;37.33;18.97;;;3.40;99.90;;;3.25;82.11;100560.56;5109731;28;20239;-69
2023/01/07 01:15:24;;;;;;;35.37;18.93;;;3.40;99.90;;;3.23;82.43;100564.75;5109689;28;20568;-68
2023/01/07 01:17:53;;;;;;;36.10;18.90;;;3.40;99.90;;;3.26;82.63;100561.41;5105447;28;20220;-69
2023/01/07 01:20:21;;;;;;;32.80;19.27;;;3.30;99.90;;;3.24;82.43;100563.94;5107761;28;20227;-71
2023/01/07 01:22:50;;;;;;;46.40;18.33;;;3.30;99.90;;;3.25;82.86;100563.09;5109527;28;20249;-71
2023/01/07 01:25:20;;;;;;;36.07;18.67;;;3.30;99.90;;;3.23;83.06;100561.34;5111851;28;20203;-69
2023/01/07 01:27:48;;;;;;;37.37;18.27;;;3.30;99.90;;;3.24;83.23;100563.94;5113516;27;20706;-70
2023/01/07 01:30:17;;;;;;;36.40;19.00;;;3.40;99.90;;;3.28;82.96;100573.38;5115092;28;20203;-69
2023/01/07 01:32:45;;;;;;;39.27;19.27;;;3.30;99.90;;;3.27;82.57;100558.03;5115587;28;20257;-69
2023/01/07 01:35:14;;;;;;;35.30;17.83;;;3.30;99.90;;;3.28;83.00;100562.34;5115280;27;20579;-70
2023/01/07 01:37:43;;;;;;;35.17;18.83;;;3.30;99.90;;;3.27;83.44;100560.59;5115409;27;20207;-69
2023/01/07 01:40:12;;;;;;;32.80;17.83;;;3.30;99.90;;;3.29;83.05;100562.38;5115184;27;20609;-69
2023/01/07 01:42:42;;;;;;;35.37;19.47;;;3.30;99.90;;;3.30;82.90;100570.84;5114122;27;20192;-71
2023/01/07 01:45:12;;;;;;;44.57;23.63;;;3.40;99.90;;;3.31;83.63;100570.88;5114073;28;20204;-71
2023/01/07 01:47:46;;;;;;;42.80;22.57;;;3.40;99.90;;;3.31;83.67;100578.53;5115393;27;20563;-70
2023/01/07 01:50:22;;;;;;;33.57;18.93;;;3.40;99.90;;;3.32;83.38;100576.88;5113329;27;20283;-68
2023/01/07 01:52:56;;;;;;;37.63;19.83;;;3.40;99.90;;;3.34;82.71;100572.66;5116293;28;20257;-70
2023/01/07 01:55:30;;;;;;;42.20;20.40;;;3.40;99.90;;;3.34;82.96;100576.06;5116012;28;20210;-69
2023/01/07 01:58:05;;;;;;;43.63;21.87;;;3.50;99.90;;;3.32;83.21;100571.78;5115926;27;20660;-71
2023/01/07 02:00:35;;;;;;;39.30;21.17;;;3.50;99.90;;;3.35;83.12;100582.00;5105248;27;20227;-69
2023/01/07 02:03:08;;;;;;;40.70;21.43;;;3.50;99.90;;;3.38;83.22;100577.88;5114555;28;20210;-69
2023/01/07 02:05:41;;;;;;;40.83;21.23;;;3.50;99.90;;;3.41;83.38;100576.22;5110368;28;20224;-69
2023/01/07 02:08:10;;;;;;;43.27;20.90;;;3.50;99.90;;;3.41;83.33;100572.00;5114228;27;20243;-70
2023/01/07 02:10:39;;;;;;;43.23;21.67;;;3.50;99.90;;;3.43;83.46;100579.69;5111374;27;20192;-69
2023/01/07 02:13:37;;;;;;;47.93;22.30;;;3.50;99.90;;;3.44;83.40;100572.09;5113134;27;20214;-70
2023/01/07 02:16:14;;;;;;;42.03;22.23;;;3.50;99.90;;;3.41;82.88;100559.25;5114200;27;20778;-69
2023/01/07 02:19:13;;;;;;;41.67;21.67;;;3.50;99.90;;;3.44;83.37;100566.13;5110207;28;20683;-70
2023/01/07 02:21:55;;;;;;;35.93;20.10;;;3.50;99.90;;;3.44;83.78;100556.81;5115431;28;20265;-70
2023/01/07 02:25:02;;;;;;;40.80;20.03;;;3.50;99.90;;;3.48;83.24;100563.69;5112717;27;20761;-68
2023/01/07 02:28:13;;;;;;;42.50;21.87;;;3.60;99.90;;;3.50;83.06;100571.38;5109777;27;20276;-69
2023/01/07 02:31:22;;;;;;;37.30;20.27;;;3.60;99.90;;;3.52;83.53;100565.50;5114461;27;20218;-68
2023/01/07 02:33:59;;;;;;;37.10;20.63;;;3.60;99.90;;;3.50;83.66;100566.25;5108592;27;20218;-69
2023/01/07 02:36:47;;;;;;;38.17;19.97;;;3.60;99.90;;;3.51;83.30;100563.78;5113951;28;20759;-70
2023/01/07 02:39:38;;;;;;;38.00;20.37;;;3.60;99.90;;;3.51;84.18;100562.91;5111490;28;20240;-70
2023/01/07 02:42:22;;;;;;;40.53;20.93;;;3.60;99.90;;;3.52;83.91;100562.09;5111269;28;20210;-70
2023/01/07 02:45:02;;;;;;;36.03;18.83;;;3.60;99.90;;;3.56;84.24;100571.53;5112137;28;20255;-71
2023/01/07 02:47:37;;;;;;;33.03;18.23;;;3.70;99.90;;;3.56;84.09;100553.69;5111181;27;20220;-69
2023/01/07 02:50:09;;;;;;;33.17;18.53;;;3.70;99.90;;;3.58;83.40;100552.06;5111010;28;20223;-70
2023/01/07 02:52:38;;;;;;;33.80;18.83;;;3.70;99.90;;;3.62;84.43;100558.94;5112412;28;20576;-68
2023/01/07 02:55:11;;;;;;;37.10;18.77;;;3.70;99.90;;;3.63;83.84;100564.06;5109782;28;20690;-71
2023/01/07 02:58:38;;;;;;;31.63;17.53;;;3.70;99.90;;;3.66;83.79;100563.28;5109940;28;20568;-70
2023/01/07 03:01:45;;;;;;;37.07;18.37;;;3.80;99.90;;;3.69;83.73;100565.06;5111457;28;20259;-70
2023/01/07 03:04:51;;;;;;;33.07;18.00;;;3.80;99.90;;;3.68;83.93;100553.97;5110782;28;20557;-70
2023/01/07 03:07:41;;;;;;;33.73;18.00;;;3.80;99.90;;;3.73;84.39;100561.75;5111806;28;20227;-70
2023/01/07 03:10:21;;;;;;;34.97;18.03;;;3.80;99.90;;;3.75;84.35;100566.06;5105908;28;20204;-69
2023/01/07 03:12:58;;;;;;;33.77;18.40;;;3.90;99.90;;;3.76;84.08;100557.59;5112053;28;20660;-69
2023/01/07 03:15:30;;;;;;;35.63;18.60;;;3.90;99.90;;;3.76;84.11;100567.81;5109537;28;20195;-70
2023/01/07 03:18:04;;;;;;;38.43;18.00;;;3.90;99.90;;;3.78;83.75;100565.28;5106677;28;20200;-70
2023/01/07 03:20:37;;;;;;;34.30;18.37;;;3.90;99.90;;;3.79;84.11;100555.13;5109835;28;20693;-69
2023/01/07 03:23:12;;;;;;;35.07;19.57;;;3.90;99.90;;;3.79;83.30;100555.13;5109977;28;20200;-70
2023/01/07 03:25:45;;;;;;;37.03;19.77;;;3.90;99.90;;;3.81;83.83;100568.75;5112028;28;20650;-70
2023/01/07 03:28:19;;;;;;;34.07;18.73;;;3.90;99.90;;;3.82;83.27;100564.53;5107696;27;20273;-69
2023/01/07 03:30:49;;;;;;;29.60;17.90;;;3.90;99.90;;;3.82;83.43;100564.53;5103155;28;20204;-70
2023/01/07 03:33:25;;;;;;;32.13;17.43;;;3.90;99.90;;;3.80;84.12;100556.84;5097746;28;20573;-70
2023/01/07 03:35:57;;;;;;;34.23;18.37;;;3.90;99.90;;;3.81;83.30;100563.66;5111030;28;20212;-69
2023/01/07 03:38:27;;;;;;;34.30;18.07;;;3.90;99.90;;;3.84;84.23;100570.53;5110697;28;20207;-69
2023/01/07 03:40:57;;;;;;;35.80;19.27;;;3.90;99.90;;;3.83;83.52;100568.81;5109940;28;20268;-69
2023/01/07 03:43:24;;;;;;;38.03;18.90;;;3.90;99.90;;;3.84;83.28;100563.75;5110854;28;20192;-70
2023/01/07 03:45:54;;;;;;;33.93;19.70;;;3.90;99.90;;;3.84;83.23;100566.28;5109532;28;20250;-68
2023/01/07 03:48:23;;;;;;;32.13;18.03;;;3.90;99.90;;;3.84;83.54;100568.84;5108265;27;20220;-69
2023/01/07 03:50:51;;;;;;;34.43;19.13;;;3.90;99.90;;;3.86;83.33;100562.06;5109638;28;20199;-69
2023/01/07 03:53:20;;;;;;;31.40;17.80;;;3.90;99.90;;;3.87;82.98;100563.81;5111001;28;20625;-70
2023/01/07 03:55:50;;;;;;;31.73;17.60;;;4.00;99.90;;;3.88;83.10;100560.44;5109443;28;20200;-68
2023/01/07 03:58:18;;;;;;;30.40;16.70;;;3.90;99.90;;;3.88;82.95;100557.88;5111134;28;20644;-69
2023/01/07 04:00:46;;;;;;;32.97;18.17;;;3.90;99.90;;;3.87;83.85;100556.19;5109942;28;20251;-69
2023/01/07 04:03:15;;;;;;;28.73;18.47;;;4.00;99.90;;;3.88;83.08;100567.22;5110614;28;20210;-70
2023/01/07 04:05:44;;;;;;;29.97;16.67;;;3.90;99.90;;;3.85;83.44;100560.34;5107815;28;20207;-69
2023/01/07 04:08:12;;;;;;;28.87;17.27;;;3.90;99.90;;;3.83;83.45;100567.13;5109772;28;20235;-70
2023/01/07 04:10:41;;;;;;;32.27;17.13;;;3.90;99.90;;;3.82;83.10;100573.03;5110105;28;20692;-70
2023/01/07 04:13:11;;;;;;;30.40;17.43;;;3.90;99.90;;;3.83;83.62;100571.38;5110826;28;20215;-70
2023/01/07 04:15:40;;;;;;;33.70;19.13;;;3.90;99.90;;;3.83;83.41;100572.22;5109675;28;20203;-69
2023/01/07 04:18:08;;;;;;;32.17;19.23;;;3.90;99.90;;;3.83;83.42;100572.22;5110304;28;20223;-69
2023/01/07 04:20:37;;;;;;;29.70;17.73;;;3.90;99.90;;;3.83;83.26;100572.22;5106643;28;20223;-71
2023/01/07 04:23:05;;;;;;;34.50;19.07;;;3.90;99.90;;;3.83;83.94;100564.56;5105424;28;20235;-72
2023/01/07 04:25:34;;;;;;;30.90;17.80;;;3.90;99.90;;;3.84;83.33;100561.19;5109346;28;20568;-69
2023/01/07 04:28:03;;;;;;;32.33;18.40;;;3.90;99.90;;;3.86;84.03;100562.06;5110494;28;20644;-70
2023/01/07 04:30:34;;;;;;;30.47;18.13;;;3.90;99.90;;;3.86;83.57;100566.31;5110544;28;20632;-68
2023/01/07 04:33:02;;;;;;;31.00;18.23;;;4.00;99.90;;;3.88;83.64;100565.53;5104214;28;20254;-70
2023/01/07 04:35:32;;;;;;;32.73;17.83;;;3.90;99.90;;;3.87;83.45;100562.97;5103872;28;20705;-69
2023/01/07 04:38:01;;;;;;;31.97;17.77;;;4.00;99.90;;;3.88;83.81;100560.44;5108933;28;20686;-70
2023/01/07 04:40:29;;;;;;;30.20;18.60;;;4.00;99.90;;;3.91;83.84;100564.75;5109574;28;20211;-69
2023/01/07 04:42:57;;;;;;;32.10;17.90;;;4.00;99.90;;;3.94;83.21;100574.16;5110133;28;20517;-69
2023/01/07 04:45:26;;;;;;;32.50;18.33;;;4.00;99.90;;;3.92;83.28;100568.16;5108605;28;20211;-70
2023/01/07 04:47:57;;;;;;;27.70;17.57;;;4.00;99.90;;;3.98;83.61;100571.72;5108354;28;21070;-70
2023/01/07 04:50:26;;;;;;;31.37;17.33;;;4.10;99.90;;;4.01;83.28;100570.91;5109517;28;20251;-69
2023/01/07 04:52:54;;;;;;;30.20;17.53;;;4.10;99.90;;;4.01;83.68;100569.22;5109025;28;20211;-70
2023/01/07 04:55:23;;;;;;;28.97;16.97;;;4.10;99.90;;;4.04;83.75;100569.28;5107691;28;20261;-70
2023/01/07 04:57:51;;;;;;;29.50;17.53;;;4.10;99.90;;;4.05;82.86;100567.59;5109609;28;20687;-70
2023/01/07 05:00:20;;;;;;;30.13;18.20;;;4.10;99.90;;;4.07;83.06;100564.28;5108678;28;20753;-68
2023/01/07 05:02:48;;;;;;;29.03;17.57;;;4.10;99.90;;;4.08;83.06;100566.00;5109728;28;20206;-69
2023/01/07 05:05:19;;;;;;;30.33;17.40;;;4.20;99.90;;;4.13;82.73;100567.81;5108995;28;20208;-71
2023/01/07 05:07:47;;;;;;;28.97;16.20;;;4.20;99.90;;;4.16;83.33;100580.59;5108878;28;20230;-70
2023/01/07 05:10:16;;;;;;;26.10;16.97;;;4.20;99.90;;;4.21;82.84;100579.03;5106570;28;20238;-69
2023/01/07 05:12:44;;;;;;;29.87;17.40;;;4.30;99.90;;;4.22;83.08;100579.06;5108979;28;20783;-69
2023/01/07 05:15:13;;;;;;;29.67;16.90;;;4.30;99.90;;;4.24;82.83;100592.72;5108807;28;20203;-69
2023/01/07 05:17:41;;;;;;;30.80;17.23;;;4.30;99.90;;;4.23;82.37;100592.66;5109226;28;20204;-68
2023/01/07 05:20:12;;;;;;;25.83;16.77;;;4.30;99.90;;;4.22;82.70;100591.81;5107593;28;20632;-70
2023/01/07 05:22:42;;;;;;;26.20;16.67;;;4.30;99.90;;;4.25;82.91;100601.25;5109878;28;20233;-70
2023/01/07 05:25:11;;;;;;;27.07;16.73;;;4.30;99.90;;;4.29;82.19;100609.00;5108360;28;20281;-70
2023/01/07 05:27:39;;;;;;;29.87;16.33;;;4.30;99.90;;;4.29;82.28;100597.94;5109191;28;20208;-71
2023/01/07 05:30:09;;;;;;;27.30;16.63;;;4.30;99.90;;;4.32;82.77;100608.22;5107572;28;20204;-69
2023/01/07 05:32:38;;;;;;;26.90;16.27;;;4.30;99.90;;;4.34;82.49;100609.09;5107741;28;20211;-70
2023/01/07 05:35:07;;;;;;;27.40;15.37;;;4.40;99.90;;;4.35;82.51;100606.59;5108554;28;20203;-70
2023/01/07 05:37:36;;;;;;;26.53;15.20;;;4.40;99.90;;;4.39;81.94;100619.41;5109459;28;20204;-70
2023/01/07 05:40:08;;;;;;;25.37;15.77;;;4.40;99.90;;;4.40;82.44;100616.03;5107274;28;20207;-70
2023/01/07 05:42:36;;;;;;;21.83;13.63;;;4.40;99.90;;;4.40;82.10;100610.94;5108974;28;20200;-69
2023/01/07 05:45:06;;;;;;;26.50;14.87;;;4.40;99.90;;;4.40;81.96;100616.88;5107123;28;20633;-69
2023/01/07 05:47:35;;;;;;;22.77;14.43;;;4.50;99.90;;;4.41;82.29;100617.75;5107756;28;20207;-68
2023/01/07 05:50:04;;;;;;;26.50;15.43;;;4.50;99.90;;;4.41;81.60;100622.84;5108325;28;20231;-70
2023/01/07 05:52:33;;;;;;;21.57;15.03;;;4.50;99.90;;;4.43;81.95;100622.06;5107961;28;20565;-69
2023/01/07 05:55:01;;;;;;;23.63;14.33;;;4.50;99.90;;;4.45;82.37;100619.53;5107777;28;20273;-69
2023/01/07 05:57:31;;;;;;;21.83;13.77;;;4.50;99.90;;;4.46;82.35;100622.13;5109018;28;20280;-69
2023/01/07 06:00:00;;;;;;;22.73;13.77;;;4.50;99.90;;;4.48;82.53;100625.56;5107005;28;20224;-69
2023/01/07 06:02:28;;;;;;;23.33;14.00;;;4.60;99.90;;;4.51;82.13;100619.69;5104232;28;20239;-70
2023/01/07 06:04:56;;;;;;;23.73;14.30;;;4.60;99.90;;;4.53;82.66;100620.59;5107548;28;20219;-71
2023/01/07 06:07:25;;;;;;;23.67;13.73;;;4.60;99.90;;;4.57;82.08;100618.13;5107669;28;20243;-70
2023/01/07 06:09:53;;;;;;;20.27;13.73;;;4.70;99.90;;;4.58;82.13;100616.44;5108979;28;20625;-69
2023/01/07 06:12:22;;;;;;;19.27;12.03;;;4.70;99.90;;;4.59;82.38;100619.00;5109742;28;20208;-69
2023/01/07 06:14:52;;;;;;;20.20;13.17;;;4.60;99.90;;;4.58;82.23;100619.00;5110312;27;20235;-69
2023/01/07 06:17:20;;;;;;;17.53;12.40;;;4.60;99.90;;;4.62;82.59;100632.69;5110510;28;20649;-70
2023/01/07 06:19:49;;;;;;;18.50;12.03;;;4.70;99.90;;;4.65;82.34;100627.66;5112324;28;20703;-69
2023/01/07 06:22:17;;;;;;;25.87;14.10;;;4.70;99.90;;;4.65;82.54;100627.66;5109645;28;20284;-70
2023/01/07 06:24:46;;;;;;;20.90;12.60;;;4.70;99.90;;;4.69;82.52;100637.09;5107701;27;20216;-68
2023/01/07 06:27:14;;;;;;;22.53;13.73;;;4.70;99.90;;;4.65;81.95;100633.59;5111900;28;20304;-70
2023/01/07 06:29:43;;;;;;;20.50;13.33;;;4.80;99.90;;;4.72;82.35;100640.56;5112444;28;20316;-71
2023/01/07 06:32:12;;;;;;;21.30;13.90;;;4.70;99.90;;;4.72;82.07;100642.28;5112389;28;20212;-68
2023/01/07 06:34:41;;;;;;;19.63;12.97;;;4.80;99.90;;;4.74;82.13;100648.25;5111006;28;20233;-71
2023/01/07 06:37:10;;;;;;;20.10;13.93;;;4.80;99.90;;;4.74;82.25;100645.69;5105983;28;20209;-69
2023/01/07 06:39:38;;;;;;;18.80;12.60;;;4.70;99.90;;;4.77;82.09;100649.19;5111004;28;20218;-70
2023/01/07 06:42:07;;;;;;;25.33;13.97;;;4.90;99.90;;;4.79;82.12;100652.66;5112149;28;20208;-69
2023/01/07 06:44:35;;;;;;;23.43;12.63;;;4.80;99.90;;;4.82;82.27;100657.81;5104558;28;20230;-70
2023/01/07 06:47:04;;;;;;;21.87;12.73;;;4.90;99.90;;;4.84;82.45;100656.16;5111186;28;20276;-69
2023/01/07 06:49:33;;;;;;;19.80;13.20;;;4.90;99.90;;;4.87;82.08;100654.50;5111032;28;20344;-70
2023/01/07 06:52:02;;;;;;;23.30;13.63;;;4.90;99.90;;;4.89;82.35;100663.03;5104194;28;20216;-69
2023/01/07 06:54:31;;;;;;;20.63;13.63;;;5.00;99.90;;;4.89;82.40;100658.78;5110522;28;20274;-69
2023/01/07 06:56:59;;;;;;;20.10;13.17;;;4.90;99.90;;;4.93;82.45;100664.81;5112227;28;20762;-70
2023/01/07 06:59:28;;;;;;;22.30;12.93;;;5.00;99.90;;;4.92;82.22;100669.06;5111801;28;20200;-70
2023/01/07 07:01:56;;;;;;;20.17;13.47;;;5.00;99.90;;;4.94;82.11;100676.78;5106846;28;20207;-69
2023/01/07 07:04:25;;;;;;;21.70;12.70;;;5.00;99.90;;;4.97;82.38;100676.81;5111330;28;20212;-71
2023/01/07 07:06:55;;;;;;;21.63;13.33;;;5.00;99.90;;;4.98;82.28;100676.00;5111647;28;20211;-69
2023/01/07 07:09:24;;;;;;;19.57;12.70;;;5.10;99.90;;;4.99;82.60;100680.28;5111580;28;20239;-70
2023/01/07 07:11:52;;;;;;;25.27;14.27;;;5.00;99.90;;;4.97;82.44;100677.72;5112201;27;20203;-69
2023/01/07 07:14:21;;;;;;;20.73;13.20;;;5.10;99.90;;;5.00;83.12;100690.53;5111827;28;20253;-70
2023/01/07 07:16:50;;;;;;;28.53;12.87;;;5.10;99.90;;;5.03;83.08;100698.25;5109361;28;20277;-69
2023/01/07 07:19:18;;;;;;;21.47;12.73;;;5.10;99.90;;;5.04;82.68;100689.78;5111250;28;20196;-69
2023/01/07 07:21:47;;;;;;;23.60;13.50;;;5.20;99.90;;;5.08;82.80;100690.69;5112065;28;20200;-70
2023/01/07 07:24:17;;;;;;;20.83;12.37;;;5.20;99.90;;;5.10;82.53;100691.59;5110794;28;20401;-71
2023/01/07 07:26:46;;;;;;;21.63;13.23;;;5.20;99.90;;;5.13;82.40;100694.22;5109311;28;20693;-72
2023/01/07 07:29:15;;;;;;;19.90;12.50;;;5.20;99.90;;;5.16;82.68;100696.84;5112002;28;20228;-73
2023/01/07 07:31:43;;;;;;;20.00;12.93;;;5.30;99.90;;;5.18;82.52;100697.72;5109223;27;20199;-71
2023/01/07 07:34:12;;;;;;;17.63;12.60;;;5.30;99.90;;;5.20;82.60;100695.22;5111764;28;20399;-71
2023/01/07 07:36:40;;;;;;;22.23;14.10;;;5.30;99.90;;;5.19;82.07;100694.34;5111171;28;20273;-68
2023/01/07 07:39:09;;;;;;;19.27;12.70;;;5.40;99.90;;;5.24;82.70;100699.53;5109317;28;20711;-71
2023/01/07 07:41:38;;;;;;;21.73;12.60;;;5.40;99.90;;;5.24;82.67;100697.84;5108005;28;20211;-72
2023/01/07 07:44:07;;;;;;;23.90;14.50;;;5.30;99.90;;;5.27;82.55;100697.91;5111269;28;20845;-70
2023/01/07 07:46:36;;;;;;;22.20;13.80;;;5.40;99.90;;;5.25;82.35;100694.47;5108661;28;20641;-68
2023/01/07 07:49:05;;;;;;;24.33;13.17;;;5.40;99.90;;;5.28;82.49;100701.34;5099363;28;20208;-70
2023/01/07 07:51:34;;;;;;;22.07;13.73;;;5.40;99.90;;;5.27;82.40;100704.72;5108643;27;20208;-72
2023/01/07 07:54:03;;;;;;;24.43;13.93;;;5.40;99.90;;;5.27;82.72;100697.91;5109112;28;20212;-71
2023/01/07 07:56:32;;;;;;;21.73;13.50;;;5.40;99.90;;;5.32;82.39;100710.78;5108755;28;20200;-72
2023/01/07 07:59:02;;;;;;;27.63;14.50;;;5.40;99.90;;;5.32;82.41;100714.19;5111787;28;20200;-69
2023/01/07 08:01:30;;;;;;;28.63;15.00;;;5.30;99.90;;;5.33;82.53;100704.81;5107662;28;20236;-73
2023/01/07 08:03:59;;;;;;;23.73;15.07;;;5.50;99.90;;;5.35;82.70;100710.00;5105564;28;20302;-70
2023/01/07 08:06:27;;;;;;;32.03;20.08;;;5.50;99.90;;;5.37;83.12;100706.63;5104843;28;20822;-70
2023/01/07 08:08:56;;;;;;;28.03;16.43;;;5.50;99.90;;;5.40;83.14;100704.13;5109019;28;20212;-71
2023/01/07 08:11:24;;;;;;;30.57;21.10;;;5.50;99.90;;;5.44;83.45;100705.91;5107840;28;20450;-71
2023/01/07 08:13:53;;;;;;;31.67;18.23;;;5.50;99.90;;;5.49;83.40;100706.88;5108735;28;20703;-69
2023/01/07 08:16:23;;;;;;;134.63;50.27;;;5.60;99.90;;;5.52;83.27;100714.59;5101153;28;20207;-69
2023/01/07 08:18:51;;;;;;;36.10;18.60;;;5.60;99.90;;;5.61;82.96;100719.03;5107643;28;20257;-68
2023/01/07 08:21:20;;;;;;;31.33;17.07;;;5.70;99.90;;;5.62;82.48;100723.28;5106790;28;20235;-68
2023/01/07 08:23:48;;;;;;;27.73;15.23;;;5.70;99.90;;;5.65;82.26;100717.41;5104569;28;20504;-69
2023/01/07 08:26:17;;;;;;;33.90;20.17;;;5.70;99.90;;;5.65;82.76;100715.69;5098782;28;20512;-69
2023/01/07 08:28:45;;;;;;;30.23;16.17;;;5.70;99.90;;;5.63;82.86;100701.16;5105037;28;20218;-72
2023/01/07 08:31:14;;;;;;;26.17;15.50;;;5.70;99.90;;;5.67;82.98;100711.50;5108305;28;20268;-71
2023/01/07 08:33:44;;;;;;;29.63;16.47;;;5.80;99.90;;;5.71;82.92;100704.75;5110289;28;20247;-70
2023/01/07 08:36:12;;;;;;;30.03;16.57;;;5.80;99.90;;;5.72;83.09;100701.34;5104339;28;20230;-70
2023/01/07 08:38:52;;;;;;;29.73;17.00;;;5.80;99.90;;;5.76;82.87;100706.53;5110573;28;20275;-70
2023/01/07 08:41:22;;;;;;;33.57;16.50;;;5.80;99.90;;;5.78;82.85;100704.88;5108677;28;20245;-70
2023/01/07 08:43:51;;;;;;;29.37;16.73;;;5.90;99.90;;;5.84;82.68;100705.81;5111254;28;21370;-69
2023/01/07 08:46:19;;;;;;;27.27;16.13;;;5.90;99.90;;;5.88;82.73;100712.69;5109778;28;20204;-67
2023/01/07 08:48:49;;;;;;;29.13;16.50;;;6.00;99.90;;;5.91;82.60;100712.75;5112499;28;20218;-67
2023/01/07 08:51:17;;;;;;;31.40;15.70;;;6.00;99.90;;;5.97;82.81;100720.59;5109769;28;20223;-68
2023/01/07 08:53:46;;;;;;;25.90;15.03;;;6.00;99.90;;;5.99;82.77;100716.34;5111368;28;20208;-75
2023/01/07 08:56:15;;;;;;;30.10;16.13;;;6.10;99.90;;;6.03;82.57;100716.41;5108953;28;20211;-75
2023/01/07 08:58:53;;;;;;;25.10;16.07;;;6.20;99.90;;;6.06;82.63;100718.19;5109524;28;20219;-72
2023/01/07 09:01:22;;;;;;;23.30;14.57;;;6.20;99.90;;;6.07;82.24;100722.44;5110066;28;20224;-75
2023/01/07 09:03:53;;;;;;;26.33;15.07;;;6.20;99.90;;;6.10;82.15;100717.41;5106178;28;20199;-72
2023/01/07 09:06:22;;;;;;;23.83;14.83;;;6.20;99.90;;;6.09;81.80;100718.25;5105958;28;20265;-72
2023/01/07 09:08:53;;;;;;;22.70;15.27;;;6.30;99.90;;;6.16;82.36;100724.34;5108738;28;20292;-75
2023/01/07 09:11:22;;;;;;;23.93;15.30;;;6.40;99.90;;;6.25;82.31;100725.31;5109813;28;20278;-73
2023/01/07 09:13:51;;;;;;;26.40;15.80;;;6.40;99.90;;;6.32;82.09;100720.31;5108829;28;20714;-68
2023/01/07 09:16:19;;;;;;;24.17;15.70;;;6.50;99.90;;;6.38;81.92;100725.56;5109151;28;20215;-70
2023/01/07 09:18:48;;;;;;;24.57;14.97;;;6.50;99.90;;;6.48;81.77;100727.41;5109906;28;20289;-70
2023/01/07 09:21:18;;;;;;;24.30;16.00;;;6.60;99.90;;;6.59;81.49;100720.78;5109760;28;20232;-69
2023/01/07 09:23:46;;;;;;;23.83;14.73;;;6.70;99.90;;;6.71;81.00;100722.66;5112114;28;20203;-68
2023/01/07 09:26:16;;;;;;;23.03;14.80;;;6.90;99.90;;;6.82;80.49;100727.94;5107932;28;20256;-69
2023/01/07 09:28:45;;;;;;;19.43;14.20;;;7.00;99.90;;;6.89;80.89;100719.50;5104560;28;20703;-68
2023/01/07 09:31:14;;;;;;;26.10;17.83;;;7.00;99.90;;;6.93;79.52;100721.28;5107252;28;20284;-68
2023/01/07 09:33:43;;;;;;;23.53;15.13;;;7.10;99.90;;;7.06;79.84;100729.97;5108538;28;20204;-69
2023/01/07 09:36:11;;;;;;;19.80;14.63;;;7.20;99.90;;;7.12;79.18;100718.13;5112168;28;20204;-72
2023/01/07 09:38:41;;;;;;;21.67;13.90;;;7.20;99.90;;;7.26;78.98;100721.72;5111816;28;20212;-70
2023/01/07 09:41:28;;;;;;;21.73;13.57;;;7.40;99.90;;;7.49;78.19;100713.44;5110622;28;20264;-67
2023/01/07 09:44:10;;;;;;;23.10;14.97;;;7.60;99.90;;;7.86;77.46;100708.72;5111929;28;20644;-68
2023/01/07 09:46:39;;;;;;;17.47;13.07;;;7.90;99.90;;;8.02;76.23;100712.28;5113163;28;20221;-71
2023/01/07 09:49:17;;;;;;;21.70;14.63;;;8.10;99.90;;;7.94;75.24;100707.09;5112269;28;20224;-69
2023/01/07 09:51:51;;;;;;;22.07;14.23;;;8.00;99.90;;;7.78;74.97;100712.91;5111792;28;20223;-70
2023/01/07 09:54:29;;;;;;;18.13;13.27;;;7.80;99.90;;;7.58;74.91;100718.66;5115795;28;20618;-69
2023/01/07 09:56:58;;;;;;;19.47;12.33;;;7.70;99.90;;;7.41;75.78;100707.38;5118107;28;20211;-69
2023/01/07 09:59:26;;;;;;;17.03;11.77;;;7.50;99.90;;;7.33;74.93;100722.66;5119002;28;20710;-67
2023/01/07 10:02:03;;;;;;;18.40;12.23;;;7.40;99.90;;;7.17;75.30;100721.59;5128044;28;20191;-69
2023/01/07 10:04:42;;;;;;;20.43;11.83;;;7.30;99.90;;;7.02;75.84;100729.06;5115586;28;20225;-72
2023/01/07 10:07:23;;;;;;;21.30;13.80;;;7.10;99.90;;;6.89;76.17;100730.63;5112461;28;20763;-72
2023/01/07 10:10:08;;;;;;;19.53;13.03;;;7.00;99.90;;;6.81;76.76;100733.88;5115546;28;20211;-69
2023/01/07 10:12:46;;;;;;;17.80;12.53;;;6.90;99.90;;;6.68;77.01;100725.16;5112331;28;20258;-69
2023/01/07 10:15:49;;;;;;;19.37;12.73;;;6.80;99.90;;;6.58;77.50;100726.72;5107755;28;20252;-69
2023/01/07 10:18:37;;;;;;;18.30;12.33;;;6.70;99.90;;;6.51;78.30;100722.34;5107810;28;20227;-71
2023/01/07 10:21:21;;;;;;;23.37;13.50;;;6.70;99.90;;;6.47;78.09;100720.56;5114022;28;20468;-70
2023/01/07 10:23:57;;;;;;;21.77;13.77;;;6.60;99.90;;;6.49;78.38;100724.03;5111713;28;20203;-71
2023/01/07 10:26:36;;;;;;;19.43;13.47;;;6.60;99.90;;;6.50;78.51;100718.06;5109744;28;20204;-70
2023/01/07 10:29:11;;;;;;;19.87;14.17;;;6.60;99.90;;;6.50;78.68;100702.69;5111480;28;20641;-70
2023/01/07 10:31:40;;;;;;;23.40;14.37;;;6.60;99.90;;;6.56;79.01;100713.03;5114899;28;20227;-69